Suggestion Search

Define a bounding box (note: it will not wrap North/South over poles). If the range is zero degrees, a bounding box will not be used to constrain the search.

Centered On °   °

Match text in the suggestion title, science rationale or special notes. The search is case-insensitive. % is a wildcard (_ for a single character).

Find
Search

You may select science themes to limit query, otherwise suggestions from all themes will be returned.

Multiple values may be selected (shift + click).

  Rows per page
498 records found, displaying 1 to 100.[First/Prev] 1, 2, 3, 4, 5 [Next/Last]
ID Suggestion Title Latitude Longitude Repeat Created Observation ID
45168 Possible sedimentary layers south of Juventae Chasma -5.383 298.200 1 2010-03-07
46066 Sinuous ridges near Juventae Chasma -4.322 296.454 1 2010-03-18
46068 Young esker-like ridges in Tempe Terra 38.441 287.463 1 2010-03-18 ESP_017477_2190
47498 Possible fans 120 kilometers north of Mojave Crater 9.847 326.717 1 2010-04-12 ESP_038851_1900
49506 Additional young esker-like ridges in Tempe Terra 38.365 287.705 1 2010-05-04 ESP_023503_2185
49526 Sinuous ridges in crater near Reull Vallis -38.471 113.016 1 2010-05-05 ESP_020055_1410
49556 Sinuous ridges in Aeolis-Zephyria -5.955 153.627 1 2010-05-06 ESP_034189_1740
49990 Deformed layers in Spallanzani Crater -57.860 86.616 1 2010-05-16
50472 Chaotic terrain in Masursky Crater 11.167 327.553 1 2010-05-28 ESP_044653_1915
50474 Possible Mojave-like fan on wall of Tiu Valles 13.354 327.462 1 2010-05-28
50486 Possible fine-scale fluvial features near Mojave Crater 14.184 327.145 1 2010-05-28
53616 MSL Final Four - Light-toned layered beds on Holden crater rim -24.619 325.591 1 2010-10-04
55546 Depositional fan within Lyot Crater 50.339 27.427 1 2010-11-20 ESP_026519_2305
63256 Layer exposures in depression at valley terminus -3.351 307.723 1 2011-07-29 ESP_029898_1765
63258 Sinuous ridge on Orson Welles bajada 0.513 313.959 1 2011-07-29 ESP_039867_1805
63260 Small channel near Orson Welles crater wall -0.802 314.734 1 2011-07-29
63280 Sinuous ridges on floor of crater east of Lohse Crater -41.325 352.488 1 2011-07-31 ESP_028301_1385
70628 Search for active glacial flow on Mars -37.697 95.570 1 2012-03-08 ESP_030051_1420
71244 Distributaries near terminus of long sinuous ridge 2.670 147.615 1 2012-03-14 ESP_028216_1825
74290 Sinuous ridge among craters SW of Capen Crater 5.299 12.794 1 2012-05-24 ESP_030212_1855
74608 Sinuous ridge on crater wall in Aeolis region -3.694 153.476 1 2012-06-03 ESP_027807_1765
75722 Possible fluvial deposit in Aeolis region -5.791 157.173 1 2012-07-20 ESP_028875_1740
75738 Overlapping depositional features at channel termini within Lowell Crater -51.437 280.286 1 2012-07-21 ESP_038167_1280
75746 Diverse river deposits in Aeolis-Zephyria -4.620 152.137 1 2012-07-22
76430 Image aftereffects of hypervelocity impacts of MSL cruise balance masses -4.808 138.934 1 2012-08-03
76432 Image aftereffects of hypervelocity impacts of MSL cruise balance masses -4.815 138.833 1 2012-08-03
76434 Eastern rim of Gale Crater -4.793 139.035 1 2012-08-03 ESP_028546_1780
76436 Image aftereffects of hypervelocity impacts of MSL cruise balance masses -4.849 138.737 1 2012-08-03
76438 Image aftereffects of hypervelocity impacts of MSL cruise balance masses -4.805 139.139 1 2012-08-03
76464 Fan with possibly embedded crater in Aeolis region -7.699 148.346 1 2012-08-03 ESP_033464_1720
77570 Stratigraphy of eastern Gale Crater -5.101 137.990 1 2012-08-29
88948 Material in Zephyria region resembling Meridiani Planum ridge-forming unit 1.067 150.643 1 2013-06-08 ESP_046954_1810
90744 Sinuous ridge among craters SW of Capen Crater 4.956 12.633 1 2013-08-16 ESP_039667_1850
90834 Light Toned Layer Crosscut By Channel -22.609 338.709 1 2013-08-19 ESP_042200_1570
90838 Distal fan in crater south of Ostrov Crater -27.883 332.619 1 2013-08-19 ESP_055360_1520
93138 Fine-scale channels in Aeolis region -6.195 152.477 1 2013-11-11 ESP_048668_1735
93250 Test for stratigraphic transition within river deposits -6.004 153.190 1 2013-11-13
97076 Measure widths of fine-scale sinuous channels in Zephyria Planum -5.998 154.000 1 2014-02-21
97134 Crater on ejecta blanket possibly crosscut by channels -6.311 152.721 1 2014-02-23 ESP_046031_1730
97142 Fine-scale layering and channels in Aeolis region -6.168 153.756 1 2014-02-24 ESP_038963_1740
98732 Equatorial excess-ejecta crater -0.113 147.747 1 2014-04-15 ESP_036721_1800
103604 Shallow crater in Terra Cimmeria -32.468 148.540 1 2014-08-08 ESP_039372_1470
103822 Layers exposed in wall of rimless crater in Libya Montes -0.489 82.572 1 2014-08-15 ESP_061053_1795
108366 Tightly-meandering bedrock channel in Nepenthes Mensae 1.102 133.841 1 2014-12-17 ESP_049895_1810
108450 Possible supraglacial channel in Phrixi Regio -40.993 283.614 1 2014-12-20 ESP_049204_1385
110550 Sinuous ridges of uncertain origin upstream of valley head in Xanthe Terra 6.021 315.022 1 2015-03-22
116228 Possible halide-rich terrain -4.517 2.878 1 2015-10-12 ESP_044810_1755
117336 Central sedimentary mound in young crater 24.416 217.687 1 2015-10-28 ESP_045079_2045
119344 Ridge in Xanthe region 9.783 325.479 1 2015-11-22 ESP_057233_1900
121680 Straight and curved ridges west of Flaugergues Crater -17.708 15.073 1 2016-01-16
130374 Seek shoreline features on possible island in paleolake -29.053 84.102 1 2016-05-30
133504 Possible relict near-surface ice at 23S -22.743 66.742 1 2016-07-06
133942 Fine-scale channel and branching sinuous ridge on fan in Nilosyrtis Mensae 27.698 72.979 1 2016-07-13
134632 Layers in Noctis Labyrinthus in MOC image R14-00526 -7.104 263.010 1 2016-07-21 ESP_052422_1730
136596 Sinuous ridges on two intersecting alluvial fans -3.115 307.534 1 2016-08-21 ESP_048069_1770
137004 Tributary in Aeolis Dorsa -2.741 149.488 1 2016-08-30 ESP_048233_1770
142504 Layers in chasm in Xanthe Terra -2.494 307.895 1 2017-01-02 ESP_062970_1775
142814 Supraglacial channels transitioning to sinuous ridges -43.439 284.013 1 2017-01-17 ESP_057459_1360
143474 Candidate ice-rich material at 23S near Runanga crater -23.680 315.073 1 2017-02-08
146870 Possible glacial moraine in young crater -21.056 93.549 1 2017-04-24 ESP_056569_1585
147052 200 meter diameter rayed crater in Xanthe region 10.086 325.335 1 2017-04-26 ESP_054859_1900
147074 Erosional window into possible playa deposits 24.265 182.706 1 2017-04-27 ESP_052016_2045
147076 Complex of meandering ridges 17.850 190.523 1 2017-04-27 ESP_051963_1980
149670 Ridges and channels in light-toned unit near Nirgal Vallis -25.713 312.260 1 2017-06-16 ESP_053752_1540
149672 Landforms near Her Desher Vallis -25.788 313.311 1 2017-06-16 ESP_057471_1540
149698 Constrain paleodischarge by confirming inner channel -24.028 326.052 1 2017-06-18
149700 Meandering inner channel in Parana Valles -22.442 348.794 1 2017-06-18 ESP_057351_1575
149702 Possible inverted channel within valley -11.749 185.890 1 2017-06-18 ESP_052082_1680
152284 Test relative age of Hargraves and Jezero source channels 19.330 76.866 1 2017-10-08
152286 Constrain relative timing of Hargraves ejecta and Jezero source channels 19.382 76.815 1 2017-10-08
152288 Sinuous ridge network and knickpoint near Hargraves ejecta 21.711 76.668 1 2017-10-08 ESP_054723_2020
152368 Determine relative timing of key stratigraphic marker near Jezero 19.905 76.399 1 2017-10-14
152370 Determine relative timing of key stratigraphic marker near Jezero 19.851 76.255 1 2017-10-14
155330 Light-toned layered outcrop in crater near Mawrth Vallis 23.483 343.313 1 2010-12-29 ESP_020877_2035
156714 Possible clay and sulfate-rich terrain -46.722 50.239 1 2018-03-23 ESP_058694_1330
157438 Exit breach valley intersecting crater -38.841 256.685 1 2018-04-09 ESP_060216_1410
158380 Constrain interactions between Mojave secondary and debris movements 9.443 325.967 1 2018-04-28
158382 Erosion-to-deposition transition at Eddie Crater alluvial fan 12.332 141.619 1 2018-04-28 ESP_061908_1925
158384 Distal end of alluvial fan in Nicholson Crater 0.624 195.257 1 2018-04-28 ESP_056974_1805
158398 Debris flow deposits or alluvial fan deposits in small crater -19.805 327.409 1 2018-04-29 ESP_060332_1600
158602 Possible outflow-channel deposits at break-in-slope adjacent to crater -33.671 347.890 1 2018-05-05 ESP_060028_1460
158604 Fan in double crater -23.644 314.412 1 2009-12-28 ESP_035159_1560
158858 Northern Terra Sirenum -11.558 184.511 1 2018-05-13 ESP_062935_1685
158860 Candidate inner channel and possible debris-flow deposits -13.611 186.251 1 2018-05-13 ESP_057502_1660
158862 Section through largest of Holden Crater fans -26.949 325.453 1 2007-03-08 PSP_003077_1530
159268 Interaction between channel and complex pitted terrain 34.956 7.548 1 2018-05-24 ESP_056928_2155
159362 Zephyria Planum -1.309 153.007 1 2012-07-24 ESP_028229_1785
159538 Ancient crater fill exposed in valley sidewall 0.014 84.465 1 2018-06-01 ESP_056622_1800
159786 Layers on northern wall of Gill Crater 16.504 5.438 1 2010-04-25 ESP_025109_1965
159822 Compositionally diverse area 21.833 72.336 1 2012-09-02 ESP_030368_2020
160298 Truncation of the toe of one alluvial fan by another alluvial fan -22.699 74.311 1 2018-06-15
160445 Distal end of alluvial fan in Nicholson Crater 0.624 195.257 1 2018-04-28 ESP_055721_1805
163008 Possible deltas in crater in Amazonis Planitia 18.270 190.422 1 2018-07-30 ESP_063462_1985
163014 Elucidate substrate of late-stage channels -26.907 73.643 1 2018-07-30
163016 Peridier Crater central peak 25.391 83.856 1 2018-07-30 ESP_057743_2055
163126 Well-preserved polygons near the equator of Mars -10.251 183.677 1 2018-07-31
163298 Constrain origin of Medusae Fossae formation -1.490 187.524 1 2018-07-31 ESP_057370_1785
163300 Landforms west of Medusae Fossae -1.296 187.466 1 2018-07-31 ESP_057093_1785
167016 Determine relative timing of layers and sinuous ridges and possible moraine -25.379 302.434 1 2018-10-11
167404 Fan and scarp on crater floor in Aonia Terra -43.480 284.498 1 2018-10-24 ESP_059437_1360

Each suggestion is given a unique ID. A stereo suggestion will be made into a pair at the discretion of the Science Theme Lead.

Suggestion title.

Latitudes are expressed in planetocentric degrees.

Longitude are measured in degrees and range east from 0 to 360.

1 for a single suggestion, STEREO for a stereo suggestion, otherwise the number of suggestions in a seasonal or other repeat set.

The date on which the suggestion was created.

If the suggestion has been retired, a link to the observation page.

The username of the suggester.